Darstellungsparameter: Aktuell verwendete Einstellungen:
Skalierung der Graphiken ... ?
xyx+y,   Skalierungsfaktor:      Skalierung: Modus: x, Faktor: 1
Darstellungszeitraum ... ?
Vom - - bis: - -   Zeitraum: 05.10.2010 - 05.10.2010
Min/Max/Avg-Anzeige ... ?
Zeige MMA aktuell
Zeige MMA Monat
Zeige MMA alles
Zeige --A aktuell
Zeige --A Monat
Zeige --A alles
Keine MMA-Anzeige
MMA:
Minimum Maximum Average (ber die Originaldaten)
MMA-Basis: 05.10.2010 - 05.10.2010
Quicknavigation für Darstellung... ?
Tage:      1T, 2T, 3T, 5T -1T -2T -3T -5T +1T +2T +3T +5T
Wochen: 1W, 2W, 3W -1W -2W -3W +1W +2W +3W
Monate: 1M, 3M, 6M -1M -3M -6M +1M +3M +6M
Jahre:    1J, 3J, 5J, 10J -1J -3J -5J -10J +1J +3J +5J +10J
Nutze für die Darstellung ... ?
Originaldaten oder Mittelwerte auf ...
Stundenbasis Tagesbasis Wochenbasis
Monatsbasis Jahresbasis      Datenbasis: Original-Daten
Darstellen als:
Statistik (Auto) Statistik J:M      Darstellung:
Zur Graphik,    zurück zur Übersicht aller Sensoren.
 
Tabellarische Datenbersicht: ?
 
Sensor: Nr:Datum:Temp:Abs-Feuchte:Windchill:Wind:
Aussen-T/F 1 05-10-2010 00:07:05 14.1 C 9.95 g/m*3 14.1 C 0 km/h
2 05-10-2010 00:19:05 14.1 C 9.95 g/m*3 14.1 C 0 km/h
3 05-10-2010 00:31:05 14.2 C 10.01 g/m*3 14.2 C 0 km/h
4 05-10-2010 00:43:05 14.3 C 10.07 g/m*3 14.3 C 0 km/h
5 05-10-2010 00:55:05 14.3 C 10.07 g/m*3 14.3 C 0 km/h
6 05-10-2010 01:07:05 14.2 C 10.01 g/m*3 14.2 C 0 km/h
7 05-10-2010 01:19:05 14.1 C 9.95 g/m*3 14.1 C 0 km/h
8 05-10-2010 01:31:05 13.8 C 9.77 g/m*3 13.8 C 0 km/h
9 05-10-2010 01:43:05 13.8 C 9.89 g/m*3 13.8 C 0 km/h
10 05-10-2010 01:55:05 13.8 C 9.89 g/m*3 13.8 C 0 km/h
11 05-10-2010 02:07:05 13.4 C 9.65 g/m*3 13.4 C 0 km/h
12 05-10-2010 02:19:05 13.5 C 9.71 g/m*3 13.5 C 0 km/h
13 05-10-2010 02:31:05 13.5 C 9.83 g/m*3 13.5 C 0 km/h
14 05-10-2010 02:43:05 13.6 C 10 g/m*3 13.6 C 0 km/h
15 05-10-2010 02:55:05 13.6 C 10 g/m*3 13.6 C 0 km/h
16 05-10-2010 03:07:05 13.6 C 10 g/m*3 13.6 C 0 km/h
17 05-10-2010 03:19:05 13.6 C 10 g/m*3 13.6 C 0 km/h
18 05-10-2010 03:31:05 13.7 C 10.07 g/m*3 13.7 C 0 km/h
19 05-10-2010 03:43:05 13.6 C 10 g/m*3 13.6 C 0 km/h
20 05-10-2010 03:55:06 13.5 C 9.94 g/m*3 13.5 C 0 km/h
21 05-10-2010 04:07:06 13.5 C 9.94 g/m*3 13.5 C 0 km/h
22 05-10-2010 04:19:06 13.6 C 10.12 g/m*3 13.6 C 0 km/h
23 05-10-2010 04:31:06 13.6 C 10.12 g/m*3 13.6 C 0 km/h
24 05-10-2010 04:43:06 13.6 C 10.12 g/m*3 13.6 C 0 km/h
25 05-10-2010 04:55:06 13.7 C 10.18 g/m*3 13.7 C 0 km/h
Sensor: Nr:Datum:Temp:Abs-Feuchte:Windchill:Wind:
Aussen-T/F 26 05-10-2010 05:07:06 13.7 C 10.18 g/m*3 13.7 C 0 km/h
27 05-10-2010 05:19:06 13.7 C 10.18 g/m*3 13.7 C 0 km/h
28 05-10-2010 05:31:06 13.6 C 10.12 g/m*3 13.6 C 0 km/h
29 05-10-2010 05:43:06 13.5 C 10.06 g/m*3 13.5 C 0 km/h
30 05-10-2010 05:55:06 13.5 C 10.18 g/m*3 13.5 C 0 km/h
31 05-10-2010 06:07:06 13.4 C 10.23 g/m*3 13.4 C 0 km/h
32 05-10-2010 06:19:06 13.4 C 10.35 g/m*3 13.4 C 0 km/h
33 05-10-2010 06:31:06 13.4 C 10.35 g/m*3 13.4 C 0 km/h
34 05-10-2010 06:43:06 13.4 C 10.46 g/m*3 13.4 C 0 km/h
35 05-10-2010 06:55:06 13.5 C 10.53 g/m*3 13.5 C 0 km/h
36 05-10-2010 07:07:01 13.4 C 10.46 g/m*3 13.4 C 0 km/h
37 05-10-2010 07:19:02 13.4 C 10.58 g/m*3 13.4 C 0 km/h
38 05-10-2010 07:31:02 13.4 C 10.58 g/m*3 13.4 C 0 km/h
39 05-10-2010 07:43:02 13.4 C 10.58 g/m*3 13.4 C 0 km/h
40 05-10-2010 07:55:02 13.4 C 10.58 g/m*3 13.4 C 0 km/h
41 05-10-2010 08:07:02 13.4 C 10.58 g/m*3 13.4 C 0 km/h
42 05-10-2010 08:19:02 13.2 C 10.45 g/m*3 13.2 C 0 km/h
43 05-10-2010 08:31:02 13.1 C 10.38 g/m*3 13.1 C 0 km/h
44 05-10-2010 08:43:02 13 C 10.32 g/m*3 13 C 0 km/h
45 05-10-2010 08:55:02 13 C 10.32 g/m*3 13 C 0 km/h
46 05-10-2010 09:07:02 13 C 10.43 g/m*3 13 C 0 km/h
47 05-10-2010 09:19:02 13.2 C 10.56 g/m*3 13.2 C 0 km/h
48 05-10-2010 09:31:01 13.4 C 10.69 g/m*3 13.4 C 0 km/h
49 05-10-2010 09:43:01 13.4 C 10.81 g/m*3 13.4 C 0 km/h
50 05-10-2010 09:55:02 13.5 C 10.88 g/m*3 13.5 C 0 km/h
Sensor: Nr:Datum:Temp:Abs-Feuchte:Windchill:Wind:
Aussen-T/F 51 05-10-2010 10:07:01 13.8 C 11.08 g/m*3 13.8 C 0 km/h
52 05-10-2010 10:19:02 14.3 C 11.43 g/m*3 14.3 C 0 km/h
53 05-10-2010 10:31:02 14.7 C 11.83 g/m*3 14.7 C 0 km/h
54 05-10-2010 10:43:02 15.2 C 12.07 g/m*3 15.2 C 0 km/h
55 05-10-2010 10:55:02 16 C 12.67 g/m*3 16 C 0 km/h
56 05-10-2010 11:07:02 17.2 C 13.62 g/m*3 17.2 C 0 km/h
57 05-10-2010 11:19:02 17.3 C 13.7 g/m*3 17.3 C 0 km/h
58 05-10-2010 11:31:02 17.4 C 13.34 g/m*3 17.4 C 0 km/h
59 05-10-2010 11:43:02 17.3 C 12.37 g/m*3 17.3 C 0 km/h
60 05-10-2010 11:55:01 18.2 C 11.97 g/m*3 18.2 C 0 km/h
61 05-10-2010 12:07:02 18.3 C 11.73 g/m*3 18.3 C 0 km/h
62 05-10-2010 12:19:02 17.9 C 11.45 g/m*3 17.9 C 0 km/h
63 05-10-2010 12:31:01 18 C 11.37 g/m*3 18 C 0 km/h
64 05-10-2010 12:43:01 17.9 C 11.3 g/m*3 17.9 C 0 km/h
65 05-10-2010 12:55:02 18.4 C 11.32 g/m*3 18.4 C 0 km/h
66 05-10-2010 13:07:01 18.7 C 11.37 g/m*3 18.7 C 0 km/h
67 05-10-2010 13:19:02 18.9 C 11.18 g/m*3 18.9 C 0 km/h
68 05-10-2010 13:31:01 19 C 11.08 g/m*3 19 C 0 km/h
69 05-10-2010 13:43:01 19.3 C 11.44 g/m*3 19.3 C 0 km/h
70 05-10-2010 13:55:02 20 C 11.06 g/m*3 20 C 0 km/h
71 05-10-2010 14:07:02 19.9 C 10.31 g/m*3 19.9 C 0 km/h
72 05-10-2010 14:19:02 19.5 C 10.57 g/m*3 19.5 C 0 km/h
73 05-10-2010 14:31:02 19.6 C 10.8 g/m*3 19.6 C 0 km/h
74 05-10-2010 14:43:02 18.7 C 11.05 g/m*3 18.7 C 0 km/h
75 05-10-2010 14:55:02 18.6 C 11.94 g/m*3 18.6 C 0 km/h
Sensor: Nr:Datum:Temp:Abs-Feuchte:Windchill:Wind:
Aussen-T/F 76 05-10-2010 15:07:01 19 C 12.22 g/m*3 19 C 0 km/h
77 05-10-2010 15:19:02 17.9 C 12.06 g/m*3 17.9 C 0 km/h
78 05-10-2010 15:31:02 18.3 C 12.51 g/m*3 18.3 C 0 km/h
79 05-10-2010 15:43:02 19.3 C 13.27 g/m*3 19.3 C 0 km/h
80 05-10-2010 15:55:01 19.5 C 13.09 g/m*3 19.5 C 0 km/h
81 05-10-2010 16:07:02 19 C 12.55 g/m*3 19 C 0 km/h
82 05-10-2010 16:19:01 18.7 C 12.65 g/m*3 18.7 C 0 km/h
83 05-10-2010 16:31:02 18.4 C 12.43 g/m*3 18.4 C 0 km/h
84 05-10-2010 16:43:02 18.3 C 12.51 g/m*3 18.3 C 0 km/h
85 05-10-2010 16:55:02 18.1 C 12.21 g/m*3 18.1 C 0 km/h
86 05-10-2010 17:07:02 17.7 C 11.92 g/m*3 17.7 C 0 km/h
87 05-10-2010 17:19:01 17.2 C 11.42 g/m*3 17.2 C 0 km/h
88 05-10-2010 17:31:02 16.8 C 11.58 g/m*3 16.8 C 0 km/h
89 05-10-2010 17:43:02 16.8 C 11.72 g/m*3 16.8 C 0 km/h
90 05-10-2010 17:55:02 17 C 11.72 g/m*3 17 C 0 km/h
91 05-10-2010 18:07:02 17.1 C 11.65 g/m*3 17.1 C 0 km/h
92 05-10-2010 18:19:02 17.1 C 11.65 g/m*3 17.1 C 0 km/h
93 05-10-2010 18:31:02 17.1 C 11.35 g/m*3 17.1 C 0 km/h
94 05-10-2010 18:43:02 17 C 11.29 g/m*3 17 C 0 km/h
95 05-10-2010 18:55:02 16.8 C 11.29 g/m*3 16.8 C 0 km/h
96 05-10-2010 19:07:02 16.6 C 11.3 g/m*3 16.6 C 0 km/h
97 05-10-2010 19:19:03 16.5 C 11.23 g/m*3 16.5 C 0 km/h
98 05-10-2010 19:31:02 16.5 C 11.37 g/m*3 16.5 C 0 km/h
99 05-10-2010 19:43:02 17.3 C 11.64 g/m*3 17.3 C 0 km/h
100 05-10-2010 19:55:02 16.4 C 11.03 g/m*3 16.4 C 0 km/h
Sensor: Nr:Datum:Temp:Abs-Feuchte:Windchill:Wind:
Aussen-T/F 101 05-10-2010 20:07:02 16.4 C 11.03 g/m*3 16.4 C 0 km/h
102 05-10-2010 20:19:02 16.4 C 11.03 g/m*3 16.4 C 0 km/h
103 05-10-2010 20:31:02 16.4 C 11.03 g/m*3 16.4 C 0 km/h
104 05-10-2010 20:43:02 16.3 C 10.96 g/m*3 16.3 C 0 km/h
105 05-10-2010 20:55:02 16.3 C 10.68 g/m*3 16.3 C 0 km/h
106 05-10-2010 21:07:02 16.1 C 10.55 g/m*3 16.1 C 0 km/h
107 05-10-2010 21:19:02 16 C 10.35 g/m*3 16 C 0 km/h
108 05-10-2010 21:31:01 15.6 C 10.24 g/m*3 15.6 C 0 km/h
109 05-10-2010 21:43:01 15.4 C 10.12 g/m*3 15.4 C 0 km/h
110 05-10-2010 21:55:02 15.3 C 10.06 g/m*3 15.3 C 0 km/h
111 05-10-2010 22:07:01 15.2 C 9.99 g/m*3 15.2 C 0 km/h
112 05-10-2010 22:19:02 15.3 C 9.92 g/m*3 15.3 C 0 km/h
113 05-10-2010 22:31:01 15.4 C 9.99 g/m*3 15.4 C 0 km/h
114 05-10-2010 22:43:01 15.2 C 9.99 g/m*3 15.2 C 0 km/h
115 05-10-2010 22:55:02 15.4 C 9.99 g/m*3 15.4 C 0 km/h
116 05-10-2010 23:07:01 15.6 C 9.97 g/m*3 15.6 C 0 km/h
117 05-10-2010 23:19:02 15.6 C 9.97 g/m*3 15.6 C 0 km/h
118 05-10-2010 23:31:01 15.6 C 9.97 g/m*3 15.6 C 0 km/h
119 05-10-2010 23:43:01 15.6 C 9.97 g/m*3 15.6 C 0 km/h
120 05-10-2010 23:55:02 15.6 C 9.97 g/m*3 15.6 C 0 km/h

Legende:
   Min
   Max


Maximal/Minimal-Werte vom 05.10.2010 - 05.10.2010

Sensor Min Max Avg
Temp
(Aussen-T/F)
13 °C
05-10-2010  08:43:02
20 °C
05-10-2010  13:55:02
15.65 °C
Abs-Feuchte
(Aussen-T/F)
9.65 g/m*3
05-10-2010  02:07:05
13.7 g/m*3
05-10-2010  11:19:02
10.79 g/m*3
Windchill
(Aussen-T/F)
13 C
05-10-2010  08:43:02
20 C
05-10-2010  13:55:02
15.52 C

Die Daten stammen von einer Davis Vantage Pro 2 Wetter-Station und werden unter Linux mit der Software wview2wettercgi und aufbereitet. Alle Angaben erfolgen ohne Gewähr für ihre Vollständigkeit oder Richtigkeit.
Kontakt: Rainer Krienke krienke@uni-koblenz.de . Meine Webseiten an der Uni Koblenz oder privat.
Version: $Revision: 0.78 $